Cancun, Mexico

7:14 PM CST on December 20, 2014 (GMT -0600)
Cancun | Change Station
CLOSE
Current Station
Personal Weather Station
Location: Cancun, QUINTANA ROO
Elevation: 40 ft
Nearby Weather Stations

Elev 40 ft 21.15 °N, 86.84 °W | Updated 3 minutes ago

Mostly Cloudy
Mostly Cloudy
76.4 °F
Feels Like 76 °F
N
13.0
Wind Variable Wind from ESE
Gusts 16.0 mph

Today
High -- | Low -- °F
--% Chance of Precip.
Yesterday
High -- | Low -- °F
Precip. -- in
6:19 AM 5:10 PM
Waning Crescent, 1% visible
Pressure 29.97 in
Visibility 6.0 miles
Clouds Scattered Clouds 1500 ft
Scattered Clouds 7000 ft
Mostly Cloudy 25000 ft
Heat Index 76 °F
Dew Point 75 °F
Humidity 95%
Rainfall 0.09 in
Snow Depth Not available.
UV 0 out of 12
Pollen Not available.
Air Quality Not available.
Flu Activity Not available.
METAR MMCZ 210051Z 14003KT 6SM SCT015 SCT070 BKN250 22/22 A2997 RMK 60015 8/463 RTS

More Conditions Fewer Conditions

Pressure 29.97 in
Visibility 6.0 miles
Clouds Scattered Clouds 1500 ft
Scattered Clouds 7000 ft
Mostly Cloudy 25000 ft
Heat Index 76 °F
Dew Point 75 °F
Humidity 95%
Rainfall 0.09 in
Snow Depth Not available.
UV 0 out of 12
Pollen Not available.
Air Quality Not available.
Flu Activity Not available.
METAR MMCZ 210051Z 14003KT 6SM SCT015 SCT070 BKN250 22/22 A2997 RMK 60015 8/463 RTS

More Conditions Fewer Conditions

10-Day Weather Forecast

Almanac

Astronomy

Dec. 20, 2014 Rise Set
Actual Time
Civil Twilight
Nautical Twilight
Astronomical Twilight
Moon
Length of Visible Light
Length of Day
Tomorrow will be .
, % of the Moon is Illuminated

Today's Extremes

Country Highs Country Lows

Community

WunderPhotos

Upload Photos

1,779,332 photos uploaded!

WunderBlogs® & News

Nearby

Air Quality

  Air Quality AQ Index Pollutant
Not available.

Snow Depth

Station Depth Elevation

Earthquake Activity

City Distance Mag. Time & Date
Minimum magnitude displayed is 2.5.

Coastal Water Temperatures

Place Temperature

Nearby Weather Stations